createdAt,value
2023-04-19T00:00:24.557Z,10.70
2023-04-19T00:00:57.697Z,10.70
2023-04-19T00:01:29.540Z,10.80
2023-04-19T00:02:02.361Z,10.80
2023-04-19T00:02:35.364Z,10.80
2023-04-19T00:03:08.403Z,10.80
2023-04-19T00:03:40.600Z,10.80
2023-04-19T00:04:12.957Z,10.80
2023-04-19T00:04:47.433Z,10.80
2023-04-19T00:05:20.353Z,10.80
2023-04-19T00:05:54.414Z,10.80
2023-04-19T00:06:30.346Z,10.70
2023-04-19T00:07:03.383Z,10.70
2023-04-19T00:07:35.349Z,10.70
2023-04-19T00:08:08.724Z,10.70
2023-04-19T00:08:40.581Z,10.70
2023-04-19T00:09:13.799Z,10.70
2023-04-19T00:09:46.619Z,10.70
2023-04-19T00:10:18.587Z,10.70
2023-04-19T00:10:50.404Z,10.70
2023-04-19T00:11:23.156Z,10.70
2023-04-19T00:11:55.403Z,10.60
2023-04-19T00:12:27.271Z,10.60
2023-04-19T00:13:00.059Z,10.60
2023-04-19T00:13:31.864Z,10.60
2023-04-19T00:14:03.686Z,10.60
2023-04-19T00:14:36.498Z,10.50
2023-04-19T00:15:08.982Z,10.50
2023-04-19T00:15:40.984Z,10.60
2023-04-19T00:16:13.827Z,10.60
2023-04-19T00:16:45.697Z,10.50
2023-04-19T00:17:17.982Z,10.50
2023-04-19T00:17:51.249Z,10.50
2023-04-19T00:18:23.054Z,10.60
2023-04-19T00:18:54.902Z,10.50
2023-04-19T00:19:27.744Z,10.60
2023-04-19T00:19:59.547Z,10.60
2023-04-19T00:20:31.419Z,10.60
2023-04-19T00:21:04.759Z,10.60
2023-04-19T00:21:36.593Z,10.60
2023-04-19T00:22:08.416Z,10.60
2023-04-19T00:22:40.571Z,10.60
2023-04-19T00:23:13.372Z,10.60
2023-04-19T00:23:45.188Z,10.60
2023-04-19T00:24:18.479Z,10.70
2023-04-19T00:24:51.245Z,10.70
2023-04-19T00:25:23.177Z,10.70
2023-04-19T00:25:55.107Z,10.70
2023-04-19T00:26:27.010Z,10.70
2023-04-19T00:27:00.357Z,10.70
2023-04-19T00:27:32.480Z,10.70
2023-04-19T00:28:05.065Z,10.70
2023-04-19T00:28:37.983Z,10.70
2023-04-19T00:29:11.023Z,10.70
2023-04-19T00:29:42.852Z,10.70
2023-04-19T00:30:15.720Z,10.80
2023-04-19T00:30:47.639Z,10.80
2023-04-19T00:31:19.567Z,10.70
2023-04-19T00:31:52.998Z,10.80
2023-04-19T00:32:24.977Z,10.70
2023-04-19T00:32:56.856Z,10.70
2023-04-19T00:33:29.679Z,10.70
2023-04-19T00:34:01.463Z,10.70
2023-04-19T00:34:33.253Z,10.70
2023-04-19T00:35:06.764Z,10.70
2023-04-19T00:35:38.732Z,10.70
2023-04-19T00:36:10.741Z,10.60
2023-04-19T00:36:43.556Z,10.70
2023-04-19T00:37:15.574Z,10.70
2023-04-19T00:37:47.395Z,10.70
2023-04-19T00:38:20.208Z,10.70
2023-04-19T00:38:51.995Z,10.70
2023-04-19T00:39:25.334Z,10.60
2023-04-19T00:39:58.166Z,10.60
2023-04-19T00:40:31.235Z,10.60
2023-04-19T00:41:03.044Z,10.60
2023-04-19T00:41:35.814Z,10.60
2023-04-19T00:42:07.690Z,10.60
2023-04-19T00:42:39.568Z,10.60
2023-04-19T00:43:12.350Z,10.60
2023-04-19T00:43:44.294Z,10.60
2023-04-19T00:44:16.400Z,10.60
2023-04-19T00:44:48.311Z,10.60
2023-04-19T00:45:21.319Z,10.60
2023-04-19T00:45:53.568Z,10.60
2023-04-19T00:46:26.469Z,10.60
2023-04-19T00:47:00.830Z,10.60
2023-04-19T00:47:32.866Z,10.60
2023-04-19T00:48:05.295Z,10.60
2023-04-19T00:48:38.236Z,10.60
2023-04-19T00:49:10.176Z,10.60
2023-04-19T00:49:41.954Z,10.60
2023-04-19T00:50:13.895Z,10.60
2023-04-19T00:50:46.770Z,10.60
2023-04-19T00:51:18.886Z,10.60
2023-04-19T00:51:51.068Z,10.60
2023-04-19T00:52:23.574Z,10.60
2023-04-19T00:52:57.014Z,10.50
2023-04-19T00:53:29.038Z,10.50
2023-04-19T00:54:02.542Z,10.40
2023-04-19T00:54:37.963Z,10.40
2023-04-19T00:55:10.241Z,10.40
2023-04-19T00:55:43.033Z,10.30
2023-04-19T00:56:16.575Z,10.30
2023-04-19T00:56:48.503Z,10.30
2023-04-19T00:57:21.558Z,10.30
2023-04-19T00:57:55.359Z,10.30
2023-04-19T00:58:30.069Z,10.30
2023-04-19T00:59:02.360Z,10.40
2023-04-19T00:59:35.916Z,10.40
2023-04-19T01:00:09.886Z,10.40
2023-04-19T01:00:41.767Z,10.40
2023-04-19T01:01:14.553Z,10.40
2023-04-19T01:01:46.413Z,10.40
2023-04-19T01:02:18.464Z,10.40
2023-04-19T01:02:50.472Z,10.40
2023-04-19T01:03:23.509Z,10.40
2023-04-19T01:03:55.524Z,10.40
2023-04-19T01:04:27.666Z,10.40
2023-04-19T01:05:00.917Z,10.40
2023-04-19T01:05:32.792Z,10.40
2023-04-19T01:06:04.906Z,10.40
2023-04-19T01:06:39.070Z,10.40
2023-04-19T01:07:11.158Z,10.40
2023-04-19T01:07:43.549Z,10.40
2023-04-19T01:08:16.510Z,10.30
2023-04-19T01:08:48.604Z,10.30
2023-04-19T01:09:20.464Z,10.30
2023-04-19T01:09:53.669Z,10.20
2023-04-19T01:10:26.610Z,10.20
2023-04-19T01:10:58.478Z,10.20
2023-04-19T01:11:30.484Z,10.20
2023-04-19T01:12:03.302Z,10.20
2023-04-19T01:12:35.365Z,10.30
2023-04-19T01:13:07.158Z,10.30
2023-04-19T01:13:39.941Z,10.30
2023-04-19T01:14:11.780Z,10.30
2023-04-19T01:14:44.096Z,10.30
2023-04-19T01:15:16.878Z,10.40
2023-04-19T01:15:48.783Z,10.40
2023-04-19T01:16:20.703Z,10.30
2023-04-19T01:16:54.142Z,10.30
2023-04-19T01:17:27.129Z,10.40
2023-04-19T01:17:58.982Z,10.30
2023-04-19T01:18:37.178Z,10.30
2023-04-19T01:19:09.014Z,10.40
2023-04-19T01:19:40.921Z,10.40
2023-04-19T01:20:13.735Z,10.40
2023-04-19T01:20:45.586Z,10.40
2023-04-19T01:21:18.530Z,10.40
2023-04-19T01:21:52.671Z,10.40
2023-04-19T01:22:28.150Z,10.40
2023-04-19T01:22:59.956Z,10.40
2023-04-19T01:23:31.731Z,10.50
2023-04-19T01:24:04.716Z,10.50
2023-04-19T01:24:36.508Z,10.50
2023-04-19T01:25:09.519Z,10.40
2023-04-19T01:25:41.384Z,10.40
2023-04-19T01:26:14.166Z,10.40
2023-04-19T01:26:46.023Z,10.40
2023-04-19T01:27:19.802Z,10.50
2023-04-19T01:27:52.532Z,10.50
2023-04-19T01:28:24.443Z,10.50
2023-04-19T01:28:56.252Z,10.60
2023-04-19T01:29:29.140Z,10.50
2023-04-19T01:30:00.974Z,10.50
2023-04-19T01:30:32.832Z,10.60
2023-04-19T01:31:05.765Z,10.60
2023-04-19T01:31:37.741Z,10.60
2023-04-19T01:32:09.594Z,10.60
2023-04-19T01:32:42.441Z,10.60
2023-04-19T01:33:14.343Z,10.60
2023-04-19T01:33:46.163Z,10.60
2023-04-19T01:34:18.406Z,10.60
2023-04-19T01:34:52.791Z,10.60
2023-04-19T01:35:24.616Z,10.70
2023-04-19T01:35:56.507Z,10.70
2023-04-19T01:36:29.422Z,10.70
2023-04-19T01:37:01.365Z,10.70
2023-04-19T01:37:36.786Z,10.70
2023-04-19T01:38:09.763Z,10.70
2023-04-19T01:38:41.595Z,10.70
2023-04-19T01:39:13.442Z,10.60
2023-04-19T01:39:46.361Z,10.60
2023-04-19T01:40:18.783Z,10.60
2023-04-19T01:40:50.678Z,10.60
2023-04-19T01:41:26.876Z,10.60
2023-04-19T01:41:58.839Z,10.50
2023-04-19T01:42:30.654Z,10.60
2023-04-19T01:43:03.406Z,10.60
2023-04-19T01:43:35.255Z,10.50
2023-04-19T01:44:07.033Z,10.50
2023-04-19T01:44:38.841Z,10.50
2023-04-19T01:45:11.917Z,10.50
2023-04-19T01:45:43.703Z,10.50
2023-04-19T01:46:15.508Z,10.50
2023-04-19T01:46:48.381Z,10.50
2023-04-19T01:47:20.188Z,10.50
2023-04-19T01:47:52.030Z,10.50
2023-04-19T01:48:24.808Z,10.60
2023-04-19T01:48:56.616Z,10.60
2023-04-19T01:49:28.412Z,10.60
2023-04-19T01:50:01.179Z,10.60
2023-04-19T01:50:33.113Z,10.60
2023-04-19T01:51:05.022Z,10.60
2023-04-19T01:51:39.758Z,10.60
2023-04-19T01:52:11.541Z,10.60
2023-04-19T01:52:44.689Z,10.50
2023-04-19T01:53:17.510Z,10.50
2023-04-19T01:53:53.292Z,10.50
2023-04-19T01:54:25.220Z,10.50
2023-04-19T01:54:57.968Z,10.50
2023-04-19T01:55:29.754Z,10.50
2023-04-19T01:56:01.540Z,10.50
2023-04-19T01:56:34.435Z,10.50
2023-04-19T01:57:06.329Z,10.50
2023-04-19T01:57:38.188Z,10.50
2023-04-19T01:58:10.969Z,10.60
2023-04-19T01:58:42.780Z,10.60
2023-04-19T01:59:14.594Z,10.60
2023-04-19T01:59:46.363Z,10.60
2023-04-19T02:00:19.384Z,10.60
2023-04-19T02:00:51.236Z,10.60
2023-04-19T02:01:23.132Z,10.60
2023-04-19T02:01:56.010Z,10.60
2023-04-19T02:02:28.085Z,10.60
2023-04-19T02:03:00.357Z,10.60
2023-04-19T02:03:33.389Z,10.60
2023-04-19T02:04:05.671Z,10.60
2023-04-19T02:04:37.587Z,10.60
2023-04-19T02:05:11.326Z,10.60
2023-04-19T02:05:43.172Z,10.60
2023-04-19T02:06:15.188Z,10.60
2023-04-19T02:06:47.941Z,10.60
2023-04-19T02:07:19.804Z,10.60
2023-04-19T02:07:52.959Z,10.50
2023-04-19T02:08:25.744Z,10.50
2023-04-19T02:08:57.561Z,10.50
2023-04-19T02:09:29.371Z,10.50
2023-04-19T02:10:02.163Z,10.50
2023-04-19T02:10:34.066Z,10.50
2023-04-19T02:11:07.644Z,10.50
2023-04-19T02:11:40.423Z,10.40
2023-04-19T02:12:12.272Z,10.50
2023-04-19T02:12:44.106Z,10.50
2023-04-19T02:13:16.879Z,10.50
2023-04-19T02:13:48.701Z,10.50
2023-04-19T02:14:20.528Z,10.50
2023-04-19T02:14:53.310Z,10.50
2023-04-19T02:15:25.130Z,10.50
2023-04-19T02:15:56.941Z,10.50
2023-04-19T02:16:29.789Z,10.50
2023-04-19T02:17:01.619Z,10.50
2023-04-19T02:17:33.443Z,10.50
2023-04-19T02:18:06.759Z,10.50
2023-04-19T02:18:39.388Z,10.50
2023-04-19T02:19:12.145Z,10.50
2023-04-19T02:19:43.922Z,10.50
2023-04-19T02:20:15.928Z,10.50
2023-04-19T02:20:48.721Z,10.50
2023-04-19T02:21:20.571Z,10.40
2023-04-19T02:21:53.654Z,10.50
2023-04-19T02:22:26.521Z,10.50
2023-04-19T02:22:59.710Z,10.50
2023-04-19T02:23:31.586Z,10.50
2023-04-19T02:24:04.666Z,10.50
2023-04-19T02:24:36.503Z,10.50
2023-04-19T02:25:08.812Z,10.60
2023-04-19T02:25:40.646Z,10.50
2023-04-19T02:26:13.947Z,10.50
2023-04-19T02:26:45.872Z,10.50
2023-04-19T02:27:18.915Z,10.50
2023-04-19T02:27:50.890Z,10.50
2023-04-19T02:28:22.907Z,10.50
2023-04-19T02:28:55.636Z,10.50
2023-04-19T02:29:27.761Z,10.50
2023-04-19T02:29:59.590Z,10.40
2023-04-19T02:30:31.497Z,10.50
2023-04-19T02:31:06.662Z,10.40
2023-04-19T02:31:38.517Z,10.50
2023-04-19T02:32:12.342Z,10.50
2023-04-19T02:32:45.226Z,10.50
2023-04-19T02:33:17.347Z,10.50
2023-04-19T02:33:49.164Z,10.40
2023-04-19T02:34:21.957Z,10.40
2023-04-19T02:34:53.795Z,10.40
2023-04-19T02:35:25.752Z,10.50
2023-04-19T02:35:58.524Z,10.50
2023-04-19T02:36:30.711Z,10.40
2023-04-19T02:37:04.112Z,10.50
2023-04-19T02:37:35.932Z,10.50
2023-04-19T02:38:09.140Z,10.50
2023-04-19T02:38:41.450Z,10.50
2023-04-19T02:39:14.237Z,10.50
2023-04-19T02:39:46.241Z,10.50
2023-04-19T02:40:18.275Z,10.50
2023-04-19T02:40:51.118Z,10.40
2023-04-19T02:41:22.926Z,10.40
2023-04-19T02:41:55.426Z,10.50
2023-04-19T02:42:28.212Z,10.40
2023-04-19T02:43:00.059Z,10.50
2023-04-19T02:43:31.951Z,10.50
2023-04-19T02:44:04.075Z,10.50
2023-04-19T02:44:36.954Z,10.50
2023-04-19T02:45:09.771Z,10.50
2023-04-19T02:45:41.616Z,10.50
2023-04-19T02:46:14.540Z,10.60
2023-04-19T02:46:49.213Z,10.50
2023-04-19T02:47:21.048Z,10.50
2023-04-19T02:47:54.101Z,10.50
2023-04-19T02:48:26.027Z,10.50
2023-04-19T02:48:57.848Z,10.50
2023-04-19T02:49:34.526Z,10.50
2023-04-19T02:50:07.462Z,10.50
2023-04-19T02:50:39.293Z,10.60
2023-04-19T02:51:16.614Z,10.60
2023-04-19T02:51:50.500Z,10.60
2023-04-19T02:52:22.410Z,10.60
2023-04-19T02:52:55.160Z,10.60
2023-04-19T02:53:28.504Z,10.60
2023-04-19T02:54:00.374Z,10.60
2023-04-19T02:54:33.818Z,10.50
2023-04-19T02:55:06.926Z,10.50
2023-04-19T02:55:39.030Z,10.50
2023-04-19T02:56:11.836Z,10.50
2023-04-19T02:56:43.611Z,10.40
2023-04-19T02:57:15.434Z,10.50
2023-04-19T02:57:48.175Z,10.50
2023-04-19T02:58:19.982Z,10.40
2023-04-19T02:58:53.602Z,10.40
2023-04-19T02:59:26.425Z,10.40
2023-04-19T02:59:58.853Z,10.40
2023-04-19T03:00:31.002Z,10.30
2023-04-19T03:01:04.011Z,10.30
2023-04-19T03:01:35.892Z,10.30
2023-04-19T03:02:07.892Z,10.30
2023-04-19T03:02:41.274Z,10.40
2023-04-19T03:03:13.260Z,10.40
2023-04-19T03:03:45.176Z,10.40
2023-04-19T03:04:18.245Z,10.40
2023-04-19T03:04:50.220Z,10.40
2023-04-19T03:05:22.252Z,10.40
2023-04-19T03:05:54.119Z,10.50
2023-04-19T03:06:27.073Z,10.50
2023-04-19T03:06:58.855Z,10.50
2023-04-19T03:07:30.682Z,10.50
2023-04-19T03:08:03.432Z,10.40
2023-04-19T03:08:36.625Z,10.30
2023-04-19T03:09:09.502Z,10.30
2023-04-19T03:09:41.293Z,10.30
2023-04-19T03:10:13.119Z,10.30
2023-04-19T03:10:45.899Z,10.30
2023-04-19T03:11:18.298Z,10.30
2023-04-19T03:11:50.109Z,10.20
2023-04-19T03:12:22.878Z,10.20
2023-04-19T03:12:54.646Z,10.20
2023-04-19T03:13:26.484Z,10.20
2023-04-19T03:13:59.231Z,10.20
2023-04-19T03:14:31.201Z,10.20
2023-04-19T03:15:03.143Z,10.20
2023-04-19T03:15:35.989Z,10.20
2023-04-19T03:16:08.616Z,10.20
2023-04-19T03:16:40.821Z,10.30
2023-04-19T03:17:13.612Z,10.30
2023-04-19T03:17:45.645Z,10.30
2023-04-19T03:18:17.912Z,10.30
2023-04-19T03:18:50.689Z,10.30
2023-04-19T03:19:22.498Z,10.30
2023-04-19T03:19:54.276Z,10.30
2023-04-19T03:20:26.656Z,10.30
2023-04-19T03:20:59.484Z,10.30
2023-04-19T03:21:31.371Z,10.20
2023-04-19T03:22:03.143Z,10.20
2023-04-19T03:22:35.903Z,10.20
2023-04-19T03:23:07.723Z,10.20
2023-04-19T03:23:41.017Z,10.20
2023-04-19T03:24:14.218Z,10.20
2023-04-19T03:24:46.122Z,10.20
2023-04-19T03:25:18.116Z,10.20
2023-04-19T03:25:51.317Z,10.30
2023-04-19T03:26:23.214Z,10.20
2023-04-19T03:26:55.063Z,10.30
2023-04-19T03:27:26.837Z,10.20
2023-04-19T03:27:59.632Z,10.20
2023-04-19T03:28:31.426Z,10.20
2023-04-19T03:29:03.217Z,10.20
2023-04-19T03:29:35.981Z,10.20
2023-04-19T03:30:08.818Z,10.20
2023-04-19T03:30:42.245Z,10.30
2023-04-19T03:31:14.095Z,10.30
2023-04-19T03:31:46.016Z,10.20
2023-04-19T03:32:18.794Z,10.30
2023-04-19T03:32:52.009Z,10.20
2023-04-19T03:33:23.884Z,10.20
2023-04-19T03:33:56.847Z,10.20
2023-04-19T03:34:28.685Z,10.20
2023-04-19T03:35:00.850Z,10.20
2023-04-19T03:35:33.601Z,10.20
2023-04-19T03:36:05.875Z,10.20
2023-04-19T03:36:39.240Z,10.30
2023-04-19T03:37:11.038Z,10.30
2023-04-19T03:37:43.419Z,10.30
2023-04-19T03:38:16.186Z,10.30
2023-04-19T03:38:49.301Z,10.30
2023-04-19T03:39:21.114Z,10.30
2023-04-19T03:39:53.929Z,10.30
2023-04-19T03:40:25.843Z,10.40
2023-04-19T03:40:57.674Z,10.40
2023-04-19T03:41:30.440Z,10.30
2023-04-19T03:42:02.564Z,10.30
2023-04-19T03:42:34.374Z,10.30
2023-04-19T03:43:06.163Z,10.30
2023-04-19T03:43:38.929Z,10.30
2023-04-19T03:44:10.779Z,10.20
2023-04-19T03:44:42.547Z,10.20
2023-04-19T03:45:15.331Z,10.20
2023-04-19T03:45:47.180Z,10.10
2023-04-19T03:46:19.071Z,10.10
2023-04-19T03:46:52.013Z,10.10
2023-04-19T03:47:24.057Z,10.10
2023-04-19T03:47:55.923Z,10.10
2023-04-19T03:48:28.973Z,10.10
2023-04-19T03:49:00.794Z,10.10
2023-04-19T03:49:32.592Z,10.10
2023-04-19T03:50:06.049Z,10.10
2023-04-19T03:50:37.851Z,10.10
2023-04-19T03:51:09.800Z,10.20
2023-04-19T03:51:42.606Z,10.10
2023-04-19T03:52:14.380Z,10.10
2023-04-19T03:52:46.271Z,10.20
2023-04-19T03:53:19.778Z,10.20
2023-04-19T03:53:52.971Z,10.20
2023-04-19T03:54:24.876Z,10.20
2023-04-19T03:54:57.630Z,10.20
2023-04-19T03:55:29.405Z,10.30
2023-04-19T03:56:01.190Z,10.30
2023-04-19T03:56:34.002Z,10.30
2023-04-19T03:57:05.879Z,10.30
2023-04-19T03:57:39.049Z,10.30
2023-04-19T03:58:11.109Z,10.30
2023-04-19T03:58:43.052Z,10.30
2023-04-19T03:59:16.078Z,10.30
2023-04-19T03:59:48.132Z,10.30
2023-04-19T04:00:20.457Z,10.30
2023-04-19T04:00:53.512Z,10.30
2023-04-19T04:01:26.660Z,10.30
2023-04-19T04:01:58.589Z,10.30
2023-04-19T04:02:31.579Z,10.30
2023-04-19T04:03:03.769Z,10.30
2023-04-19T04:03:36.066Z,10.30
2023-04-19T04:04:09.768Z,10.40
2023-04-19T04:04:42.070Z,10.40
2023-04-19T04:05:14.309Z,10.40
2023-04-19T04:05:47.366Z,10.40
2023-04-19T04:06:19.175Z,10.40
2023-04-19T04:06:51.133Z,10.40
2023-04-19T04:07:24.584Z,10.40
2023-04-19T04:07:57.729Z,10.40
2023-04-19T04:08:29.511Z,10.50
2023-04-19T04:09:03.812Z,10.50
2023-04-19T04:09:35.661Z,10.40
2023-04-19T04:10:08.815Z,10.50
2023-04-19T04:10:41.558Z,10.50
2023-04-19T04:11:13.434Z,10.50
2023-04-19T04:11:45.257Z,10.40
2023-04-19T04:12:18.027Z,10.40
2023-04-19T04:12:49.857Z,10.40
2023-04-19T04:13:21.710Z,10.40
2023-04-19T04:13:54.866Z,10.40
2023-04-19T04:14:26.713Z,10.30
2023-04-19T04:14:58.590Z,10.30
2023-04-19T04:15:31.357Z,10.30
2023-04-19T04:16:03.305Z,10.30
2023-04-19T04:16:35.156Z,10.30
2023-04-19T04:17:07.999Z,10.30
2023-04-19T04:17:39.861Z,10.30
2023-04-19T04:18:11.713Z,10.40
2023-04-19T04:18:44.548Z,10.40
2023-04-19T04:19:17.856Z,10.40
2023-04-19T04:19:49.663Z,10.40
2023-04-19T04:20:22.664Z,10.50
2023-04-19T04:20:54.632Z,10.40
2023-04-19T04:21:27.010Z,10.40
2023-04-19T04:21:58.811Z,10.40
2023-04-19T04:22:31.585Z,10.40
2023-04-19T04:23:03.427Z,10.40
2023-04-19T04:23:35.309Z,10.40
2023-04-19T04:24:09.752Z,10.40
2023-04-19T04:24:42.775Z,10.40
2023-04-19T04:25:15.844Z,10.40
2023-04-19T04:25:48.715Z,10.40
2023-04-19T04:26:21.748Z,10.40
2023-04-19T04:26:53.675Z,10.40
2023-04-19T04:27:26.560Z,10.40
2023-04-19T04:27:58.469Z,10.30
2023-04-19T04:28:30.841Z,10.30
2023-04-19T04:29:03.885Z,10.30
2023-04-19T04:29:36.714Z,10.30
2023-04-19T04:30:09.745Z,10.30
2023-04-19T04:30:42.865Z,10.30
2023-04-19T04:31:17.921Z,10.20
2023-04-19T04:31:49.933Z,10.20
2023-04-19T04:32:23.664Z,10.20
2023-04-19T04:32:57.845Z,10.20
2023-04-19T04:33:29.754Z,10.20
2023-04-19T04:34:03.363Z,10.20
2023-04-19T04:34:35.728Z,10.20
2023-04-19T04:35:09.359Z,10.20
2023-04-19T04:35:42.149Z,10.30
2023-04-19T04:36:13.946Z,10.20
2023-04-19T04:36:45.782Z,10.20
2023-04-19T04:37:18.788Z,10.20
2023-04-19T04:37:50.600Z,10.20
2023-04-19T04:38:24.924Z,10.20
2023-04-19T04:38:58.083Z,10.20
2023-04-19T04:39:31.234Z,10.20
2023-04-19T04:40:05.096Z,10.20
2023-04-19T04:40:37.883Z,10.20
2023-04-19T04:41:12.007Z,10.20
2023-04-19T04:41:43.896Z,10.20
2023-04-19T04:42:17.452Z,10.30
2023-04-19T04:42:49.444Z,10.30
2023-04-19T04:43:21.787Z,10.30
2023-04-19T04:44:10.704Z,10.30
2023-04-19T04:44:44.910Z,10.40
2023-04-19T04:45:18.952Z,10.40
2023-04-19T04:45:51.695Z,10.40
2023-04-19T04:46:23.714Z,10.40
2023-04-19T04:46:56.587Z,10.40
2023-04-19T04:47:31.887Z,10.40
2023-04-19T04:48:04.168Z,10.30
2023-04-19T04:48:36.967Z,10.30
2023-04-19T04:49:08.782Z,10.30
2023-04-19T04:49:40.864Z,10.30
2023-04-19T04:50:13.741Z,10.40
2023-04-19T04:50:45.665Z,10.30
2023-04-19T04:51:17.500Z,10.30
2023-04-19T04:51:49.353Z,10.30
2023-04-19T04:52:22.121Z,10.30
2023-04-19T04:52:53.915Z,10.30
2023-04-19T04:53:26.474Z,10.30
2023-04-19T04:53:59.405Z,10.20
2023-04-19T04:54:32.561Z,10.20
2023-04-19T04:55:06.075Z,10.20
2023-04-19T04:55:38.879Z,10.20
2023-04-19T04:56:10.664Z,10.30
2023-04-19T04:56:43.518Z,10.20
2023-04-19T04:57:15.833Z,10.20
2023-04-19T04:57:47.692Z,10.20
2023-04-19T04:58:20.621Z,10.20
2023-04-19T04:58:52.479Z,10.20
2023-04-19T04:59:24.290Z,10.10
2023-04-19T04:59:57.244Z,10.10
2023-04-19T05:00:29.000Z,10.00
2023-04-19T05:01:01.893Z,10.10
2023-04-19T05:01:34.241Z,10.10
2023-04-19T05:02:06.126Z,10.10
2023-04-19T05:02:38.930Z,10.10
2023-04-19T05:03:11.017Z,10.10
2023-04-19T05:03:43.913Z,10.10
2023-04-19T05:04:15.954Z,10.10
2023-04-19T05:04:47.942Z,10.10
2023-04-19T05:05:20.792Z,10.00
2023-04-19T05:05:52.599Z,10.00
2023-04-19T05:06:24.398Z,10.10
2023-04-19T05:06:57.130Z,10.00
2023-04-19T05:07:28.922Z,10.10
2023-04-19T05:08:01.083Z,10.00
2023-04-19T05:08:33.876Z,10.00
2023-04-19T05:09:05.645Z,10.00
2023-04-19T05:09:38.824Z,10.00
2023-04-19T05:10:11.895Z,10.00
2023-04-19T05:10:43.840Z,10.00
2023-04-19T05:11:17.125Z,10.00
2023-04-19T05:11:49.012Z,10.00
2023-04-19T05:12:20.868Z,9.90
2023-04-19T05:12:53.613Z,9.90
2023-04-19T05:13:25.424Z,9.90
2023-04-19T05:13:57.290Z,10.00
2023-04-19T05:14:30.083Z,10.00
2023-04-19T05:15:01.910Z,10.00
2023-04-19T05:15:33.723Z,10.00
2023-04-19T05:16:07.004Z,10.00
2023-04-19T05:16:39.504Z,10.10
2023-04-19T05:17:11.318Z,10.10
2023-04-19T05:17:44.124Z,10.20
2023-04-19T05:18:15.992Z,10.20
2023-04-19T05:18:47.823Z,10.20
2023-04-19T05:19:20.586Z,10.20
2023-04-19T05:19:52.348Z,10.20
2023-04-19T05:20:24.200Z,10.20
2023-04-19T05:20:58.283Z,10.20
2023-04-19T05:21:30.143Z,10.20
2023-04-19T05:22:01.914Z,10.20
2023-04-19T05:22:34.689Z,10.10
2023-04-19T05:23:06.536Z,10.20
2023-04-19T05:23:38.448Z,10.20
2023-04-19T05:24:11.255Z,10.20
2023-04-19T05:24:44.925Z,10.20
2023-04-19T05:25:16.836Z,10.20
2023-04-19T05:25:49.710Z,10.20
2023-04-19T05:26:21.597Z,10.20
2023-04-19T05:26:53.411Z,10.20
2023-04-19T05:27:26.282Z,10.30
2023-04-19T05:27:58.165Z,10.30
2023-04-19T05:28:29.981Z,10.30
2023-04-19T05:29:02.752Z,10.30
2023-04-19T05:29:34.509Z,10.30
2023-04-19T05:30:07.361Z,10.30
2023-04-19T05:30:40.244Z,10.30
2023-04-19T05:31:12.450Z,10.40
2023-04-19T05:31:44.410Z,10.40
2023-04-19T05:32:17.230Z,10.40
2023-04-19T05:32:49.289Z,10.40
2023-04-19T05:33:21.163Z,10.40
2023-04-19T05:33:53.991Z,10.40
2023-04-19T05:34:25.963Z,10.40
2023-04-19T05:34:57.820Z,10.40
2023-04-19T05:35:30.594Z,10.40
2023-04-19T05:36:02.400Z,10.50
2023-04-19T05:36:34.186Z,10.50
2023-04-19T05:37:07.199Z,10.50
2023-04-19T05:37:40.722Z,10.50
2023-04-19T05:38:12.520Z,10.50
2023-04-19T05:38:45.966Z,10.50
2023-04-19T05:39:17.754Z,10.50
2023-04-19T05:39:50.917Z,10.50
2023-04-19T05:40:24.233Z,10.50
2023-04-19T05:40:56.184Z,10.50
2023-04-19T05:41:28.029Z,10.50
2023-04-19T05:42:01.709Z,10.60
2023-04-19T05:42:33.530Z,10.60
2023-04-19T05:43:05.536Z,10.60
2023-04-19T05:43:38.336Z,10.50
2023-04-19T05:44:10.179Z,10.40
2023-04-19T05:44:42.129Z,10.40
2023-04-19T05:45:15.849Z,10.40
2023-04-19T05:45:47.824Z,10.40
2023-04-19T05:46:19.662Z,10.40
2023-04-19T05:46:52.528Z,10.40
2023-04-19T05:47:24.494Z,10.30
2023-04-19T05:47:56.424Z,10.30
2023-04-19T05:48:29.215Z,10.40
2023-04-19T05:49:00.990Z,10.40
2023-04-19T05:49:32.797Z,10.40
2023-04-19T05:50:06.029Z,10.40
2023-04-19T05:50:37.831Z,10.40
2023-04-19T05:51:09.662Z,10.40
2023-04-19T05:51:42.440Z,10.40
2023-04-19T05:52:14.269Z,10.40
2023-04-19T05:52:47.145Z,10.40
2023-04-19T05:53:18.984Z,10.40
2023-04-19T05:53:50.807Z,10.50
2023-04-19T05:54:23.600Z,10.50
2023-04-19T05:54:56.792Z,10.50
2023-04-19T05:55:29.548Z,10.50
2023-04-19T05:56:01.379Z,10.50
2023-04-19T05:56:33.209Z,10.60
2023-04-19T05:57:06.209Z,10.60
2023-04-19T05:57:38.071Z,10.50
2023-04-19T05:58:10.849Z,10.50
2023-04-19T05:58:42.734Z,10.50
2023-04-19T05:59:14.655Z,10.50
2023-04-19T05:59:47.539Z,10.50
2023-04-19T06:00:19.785Z,10.50
2023-04-19T06:00:52.948Z,10.50
2023-04-19T06:01:24.842Z,10.50
2023-04-19T06:01:56.814Z,10.50
2023-04-19T06:02:29.842Z,10.50
2023-04-19T06:03:02.050Z,10.50
2023-04-19T06:03:34.194Z,10.50
2023-04-19T06:04:07.189Z,10.40
2023-04-19T06:04:39.331Z,10.40
2023-04-19T06:05:11.691Z,10.40
2023-04-19T06:05:44.719Z,10.40
2023-04-19T06:06:16.802Z,10.40
2023-04-19T06:06:48.814Z,10.40
2023-04-19T06:07:32.013Z,10.40
2023-04-19T06:08:07.016Z,10.30
2023-04-19T06:08:39.791Z,10.30
2023-04-19T06:09:12.303Z,10.30
2023-04-19T06:09:44.179Z,10.30
2023-04-19T06:10:18.424Z,10.20
2023-04-19T06:10:55.600Z,10.20
2023-04-19T06:11:38.787Z,10.20
2023-04-19T06:12:20.180Z,10.10
2023-04-19T06:12:51.991Z,10.00
2023-04-19T06:13:23.858Z,10.00
2023-04-19T06:13:56.616Z,10.00
2023-04-19T06:14:29.100Z,10.00
2023-04-19T06:15:00.946Z,10.00
2023-04-19T06:15:33.768Z,10.00
2023-04-19T06:16:06.720Z,10.10
2023-04-19T06:16:38.688Z,10.10
2023-04-19T06:17:11.674Z,10.10
2023-04-19T06:17:43.565Z,10.20
2023-04-19T06:18:19.722Z,10.20
2023-04-19T06:18:53.103Z,10.20
2023-04-19T06:19:25.015Z,10.20
2023-04-19T06:19:57.959Z,10.20
2023-04-19T06:20:29.816Z,10.30
2023-04-19T06:21:01.787Z,10.20
2023-04-19T06:21:34.920Z,10.20
2023-04-19T06:22:06.775Z,10.20
2023-04-19T06:22:43.529Z,10.20
2023-04-19T06:23:18.226Z,10.20
2023-04-19T06:23:50.309Z,10.20
2023-04-19T06:24:22.163Z,10.20
2023-04-19T06:24:54.953Z,10.20
2023-04-19T06:25:28.161Z,10.30
2023-04-19T06:25:59.954Z,10.30
2023-04-19T06:26:32.791Z,10.30
2023-04-19T06:27:04.697Z,10.30
2023-04-19T06:27:37.460Z,10.30
2023-04-19T06:28:09.283Z,10.30
2023-04-19T06:28:41.230Z,10.30
2023-04-19T06:29:13.955Z,10.30
2023-04-19T06:29:45.749Z,10.40
2023-04-19T06:30:21.613Z,10.40
2023-04-19T06:30:53.496Z,10.40
2023-04-19T06:31:25.556Z,10.40
2023-04-19T06:31:58.518Z,10.40
2023-04-19T06:32:30.404Z,10.40
2023-04-19T06:33:02.463Z,10.40
2023-04-19T06:33:35.259Z,10.40
2023-04-19T06:34:07.063Z,10.30
2023-04-19T06:34:38.899Z,10.20
2023-04-19T06:35:12.041Z,10.10
2023-04-19T06:35:43.846Z,10.10
2023-04-19T06:36:16.717Z,10.10
2023-04-19T06:36:48.538Z,10.10
2023-04-19T06:37:21.302Z,10.10
2023-04-19T06:37:53.138Z,10.00
2023-04-19T06:38:25.079Z,10.00
2023-04-19T06:38:57.858Z,10.00
2023-04-19T06:39:29.667Z,10.00
2023-04-19T06:40:01.630Z,10.00
2023-04-19T06:40:35.862Z,10.00
2023-04-19T06:41:09.095Z,10.00
2023-04-19T06:41:40.907Z,10.00
2023-04-19T06:42:13.750Z,10.00
2023-04-19T06:42:45.780Z,10.00
2023-04-19T06:43:18.531Z,10.00
2023-04-19T06:43:50.555Z,10.00
2023-04-19T06:44:23.383Z,10.10
2023-04-19T06:44:57.077Z,10.10
2023-04-19T06:45:30.001Z,10.10
2023-04-19T06:46:03.144Z,10.10
2023-04-19T06:46:36.024Z,10.00
2023-04-19T06:47:07.831Z,10.00
2023-04-19T06:47:40.634Z,10.00
2023-04-19T06:48:12.544Z,10.00
2023-04-19T06:48:44.432Z,10.00
2023-04-19T06:49:17.185Z,10.00
2023-04-19T06:49:49.042Z,10.00
2023-04-19T06:50:21.363Z,10.00
2023-04-19T06:50:54.157Z,10.10
2023-04-19T06:51:26.066Z,10.10
2023-04-19T06:51:59.496Z,10.10
2023-04-19T06:52:32.259Z,10.10
2023-04-19T06:53:04.971Z,10.10
2023-04-19T06:53:37.837Z,10.10
2023-04-19T06:54:10.635Z,10.00
2023-04-19T06:54:42.483Z,10.00
2023-04-19T06:55:14.408Z,10.00
2023-04-19T06:55:48.775Z,10.10
2023-04-19T06:56:39.885Z,10.10
2023-04-19T06:57:12.622Z,10.10
2023-04-19T06:57:44.427Z,10.10
2023-04-19T06:58:16.255Z,10.10
2023-04-19T06:58:49.041Z,10.20
2023-04-19T06:59:21.289Z,10.20
2023-04-19T06:59:54.792Z,10.30